Terminal Aerodrome Forecast
Issued by NWS Shreveport, LA

Home | Current Version | Previous Version | Text Only | Print | Product List | Glossary On
Versions: 1 2 3 4 5 6 7 8 9 10 11 12 13 14 15 16
458
FTUS44 KSHV 281126
TAFTYR
TAF
KTYR 281126Z 2812/2912 14006KT P6SM FEW015 SCT250
     FM281500 15007KT P6SM SCT035 SCT250
     FM281800 15010KT P6SM SCT050 SCT250
     FM290000 15008KT P6SM FEW060 SCT250
      TEMPO 2908/2912 BKN008=

USA.gov is the U.S. government's official web portal to all federal, state and local government web resources and services.